Time;durP1;ratioP1;P1;durP2;ratioP2;P2;SDS_P1;SDS_P2;PMS_P1;PMS_P2;Temp;Humidity;BMP_temperature;BMP_pressure;BME280_temperature;BME280_humidity;BME280_pressure;Samples;Min_cycle;Max_cycle;Signal;HPM_P1;HPM_P2
2022/11/09 00:00:47;;;;;;;5.85;1.70;;;11.50;99.90;;;;;;5084785;28;20028;-81
2022/11/09 00:03:15;;;;;;;6.78;2.20;;;11.40;99.90;;;;;;5067244;28;20386;-82
2022/11/09 00:05:54;;;;;;;8.48;1.70;;;11.30;99.90;;;;;;5081050;28;20060;-82
2022/11/09 00:08:19;;;;;;;9.10;2.42;;;11.40;99.90;;;;;;5099466;28;20089;-82
2022/11/09 00:10:45;;;;;;;9.07;2.60;;;11.40;99.90;;;;;;5068231;28;20140;-82
2022/11/09 00:13:11;;;;;;;6.70;2.42;;;11.70;99.90;;;;;;5065620;28;20079;-84
2022/11/09 00:15:36;;;;;;;7.20;2.60;;;11.40;99.90;;;;;;5069378;28;20570;-84
2022/11/09 00:18:02;;;;;;;8.27;3.10;;;11.50;99.90;;;;;;5085148;28;20043;-82
2022/11/09 00:20:28;;;;;;;7.00;3.30;;;11.50;99.90;;;;;;5080066;28;20116;-84
2022/11/09 00:22:53;;;;;;;10.25;3.35;;;11.50;99.90;;;;;;5067914;28;20448;-84
2022/11/09 00:25:19;;;;;;;14.23;3.53;;;11.70;99.90;;;;;;5065849;28;20115;-84
2022/11/09 00:27:45;;;;;;;8.18;2.88;;;11.60;99.90;;;;;;5082788;28;20097;-81
2022/11/09 00:30:11;;;;;;;8.60;2.70;;;11.60;99.90;;;;;;5085211;28;20119;-81
2022/11/09 00:36:06;;;;;;;10.65;2.70;;;11.60;99.90;;;;;;5082525;28;20070;-81
2022/11/09 00:38:32;;;;;;;8.00;2.60;;;11.50;99.90;;;;;;5084553;28;20047;-85
2022/11/09 00:41:05;;;;;;;7.72;2.30;;;11.60;99.90;;;;;;5086377;28;20413;-83
2022/11/09 00:43:31;;;;;;;6.60;2.50;;;11.70;99.90;;;;;;5085671;28;20040;-83
2022/11/09 00:45:57;;;;;;;7.35;2.40;;;11.60;99.90;;;;;;5101368;28;20051;-83
2022/11/09 00:48:22;;;;;;;8.63;2.80;;;11.60;99.90;;;;;;5069256;28;20047;-83
2022/11/09 00:50:53;;;;;;;9.07;2.75;;;11.80;99.90;;;;;;5068476;28;20123;-84
2022/11/09 00:53:19;;;;;;;9.48;2.92;;;11.80;99.90;;;;;;5075177;28;20051;-83
2022/11/09 00:55:58;;;;;;;8.15;2.88;;;11.80;99.90;;;;;;5075032;28;20085;-83
2022/11/09 00:58:25;;;;;;;5.43;2.53;;;11.80;99.90;;;;;;5089634;28;20029;-82
2022/11/09 01:00:52;;;;;;;8.48;2.95;;;11.90;99.90;;;;;;5075846;28;20048;-85
2022/11/09 01:03:18;;;;;;;12.23;2.88;;;11.60;99.90;;;;;;5100762;28;20161;-82
2022/11/09 01:05:44;;;;;;;8.57;2.95;;;11.90;99.90;;;;;;5071638;28;20474;-82
2022/11/09 01:08:10;;;;;;;9.45;2.75;;;11.70;99.90;;;;;;5120034;27;20044;-81
2022/11/09 01:10:42;;;;;;;8.30;3.15;;;11.70;99.90;;;;;;5066946;28;20154;-85
2022/11/09 01:13:09;;;;;;;9.95;2.83;;;11.90;99.90;;;;;;5100931;27;20130;-84
2022/11/09 01:15:50;;;;;;;6.68;2.70;;;11.70;99.90;;;;;;5116913;27;20051;-81
2022/11/09 01:18:18;;;;;;;9.75;2.45;;;11.90;99.90;;;;;;5083059;28;20043;-80
2022/11/09 01:20:47;;;;;;;12.70;3.00;;;11.80;99.90;;;;;;5084247;28;20090;-81
2022/11/09 01:23:15;;;;;;;7.85;2.92;;;11.80;99.90;;;;;;5084000;28;20122;-81
2022/11/09 01:25:41;;;;;;;8.77;2.63;;;11.70;99.90;;;;;;5070365;28;20047;-82
2022/11/09 01:28:08;;;;;;;7.35;2.95;;;11.90;99.90;;;;;;5119214;27;20036;-82
2022/11/09 01:30:36;;;;;;;7.78;2.63;;;11.70;99.90;;;;;;5087050;28;20515;-82
2022/11/09 01:33:03;;;;;;;6.97;2.70;;;11.80;99.90;;;;;;5068736;28;20344;-83
2022/11/09 01:35:31;;;;;;;9.90;2.88;;;11.90;99.90;;;;;;5114708;27;20035;-82
2022/11/09 01:37:57;;;;;;;10.70;2.92;;;11.70;99.90;;;;;;5121033;27;20044;-82
2022/11/09 01:40:22;;;;;;;12.98;2.72;;;11.90;99.90;;;;;;5070294;28;20043;-84
2022/11/09 01:42:48;;;;;;;11.18;3.03;;;11.80;99.90;;;;;;5070669;28;20134;-82
2022/11/09 01:45:17;;;;;;;11.25;3.22;;;11.90;99.90;;;;;;5070462;28;20050;-84
2022/11/09 01:51:30;;;;;;;14.93;2.95;;;12.00;99.90;;;;;;5083108;28;20063;-83
2022/11/09 01:54:02;;;;;;;9.88;2.83;;;12.10;99.90;;;;;;5084927;28;20040;-82
2022/11/09 01:56:30;;;;;;;17.60;3.25;;;12.20;99.90;;;;;;5068450;28;20062;-81
2022/11/09 01:59:02;;;;;;;15.20;3.55;;;12.20;99.90;;;;;;5071323;28;20510;-81
2022/11/09 02:01:30;;;;;;;15.98;3.53;;;12.00;99.90;;;;;;5067467;28;20039;-81
2022/11/09 02:04:11;;;;;;;13.13;3.05;;;12.20;99.90;;;;;;5088275;28;20360;-84
2022/11/09 02:06:36;;;;;;;13.15;3.55;;;11.90;99.90;;;;;;5119576;27;20040;-81
2022/11/09 02:09:32;;;;;;;9.30;3.03;;;12.00;99.90;;;;;;5071907;28;20055;-83
2022/11/09 02:11:58;;;;;;;9.63;2.72;;;12.10;99.90;;;;;;5093269;28;20066;-82
2022/11/09 02:14:26;;;;;;;14.10;2.75;;;12.10;99.90;;;;;;5071558;28;20108;-83
2022/11/09 02:18:15;;;;;;;17.83;3.00;;;12.00;99.90;;;;;;5104415;27;20067;-83
2022/11/09 02:20:50;;;;;;;12.30;2.78;;;11.90;99.90;;;;;;5077023;28;20128;-82
2022/11/09 02:23:17;;;;;;;10.00;2.85;;;11.70;99.90;;;;;;5091073;28;20051;-80
2022/11/09 02:25:47;;;;;;;11.73;2.88;;;11.80;99.90;;;;;;5070576;28;20160;-81
2022/11/09 02:28:15;;;;;;;14.70;2.90;;;11.60;99.90;;;;;;5086012;28;20562;-83
2022/11/09 02:30:43;;;;;;;13.38;2.70;;;11.60;99.90;;;;;;5099277;28;20044;-85
2022/11/09 02:36:35;;;;;;;17.10;3.15;;;11.70;99.90;;;;;;5085563;28;20040;-82
2022/11/09 02:39:02;;;;;;;12.43;3.10;;;11.70;99.90;;;;;;5082607;28;20512;-82
2022/11/09 02:41:29;;;;;;;8.43;2.35;;;11.60;99.90;;;;;;5119657;27;20040;-82
2022/11/09 02:43:55;;;;;;;16.33;3.08;;;11.50;99.90;;;;;;5070934;28;20040;-83
2022/11/09 02:46:24;;;;;;;12.82;2.83;;;11.40;99.90;;;;;;5086550;28;20028;-83
2022/11/09 02:48:49;;;;;;;11.68;2.90;;;11.30;99.90;;;;;;5087504;28;20060;-81
2022/11/09 02:51:15;;;;;;;10.30;2.80;;;11.30;99.90;;;;;;5068606;28;20071;-84
2022/11/09 02:53:40;;;;;;;13.60;2.70;;;11.40;99.90;;;;;;5086563;28;20471;-80
2022/11/09 02:56:10;;;;;;;10.85;2.72;;;11.20;99.90;;;;;;5083885;28;20036;-83
2022/11/09 02:58:35;;;;;;;12.43;2.97;;;11.20;99.90;;;;;;5086168;28;20360;-80
2022/11/09 03:01:01;;;;;;;11.20;2.90;;;11.10;99.90;;;;;;5069216;28;20039;-83
2022/11/09 03:03:28;;;;;;;13.93;2.53;;;11.20;99.90;;;;;;5069373;28;20097;-80
2022/11/09 03:05:54;;;;;;;13.23;2.58;;;11.40;99.90;;;;;;5069163;28;20113;-80
2022/11/09 03:08:19;;;;;;;10.52;3.00;;;11.20;99.90;;;;;;5084573;28;20043;-80
2022/11/09 03:10:45;;;;;;;11.55;2.58;;;11.40;99.90;;;;;;5103316;28;20070;-82
2022/11/09 03:13:11;;;;;;;12.63;2.90;;;11.20;99.90;;;;;;5070749;28;20071;-83
2022/11/09 03:15:37;;;;;;;16.92;3.05;;;11.10;99.90;;;;;;5087748;28;20047;-80
2022/11/09 03:18:03;;;;;;;11.85;2.80;;;11.20;99.90;;;;;;5070424;28;20048;-79
2022/11/09 03:20:38;;;;;;;13.23;2.70;;;11.20;99.90;;;;;;5085982;28;20065;-81
2022/11/09 03:23:04;;;;;;;17.63;3.00;;;11.20;99.90;;;;;;5090436;28;20435;-82
2022/11/09 03:25:30;;;;;;;16.23;3.30;;;11.30;99.90;;;;;;5086235;28;20031;-80
2022/11/09 03:27:57;;;;;;;12.98;3.00;;;11.20;99.90;;;;;;5099244;27;20405;-80
2022/11/09 03:30:23;;;;;;;11.63;2.83;;;11.20;99.90;;;;;;5089014;28;20031;-82
2022/11/09 03:36:29;;;;;;;12.27;2.67;;;11.20;99.90;;;;;;5083985;28;20058;-80
2022/11/09 03:38:55;;;;;;;14.13;2.97;;;11.20;99.90;;;;;;5084159;28;20032;-80
2022/11/09 03:41:20;;;;;;;13.68;3.00;;;11.10;99.90;;;;;;5100583;28;20044;-81
2022/11/09 03:43:46;;;;;;;14.23;3.25;;;11.30;99.90;;;;;;5084692;28;20437;-82
2022/11/09 03:46:12;;;;;;;10.55;2.30;;;11.10;99.90;;;;;;5081106;28;20402;-82
2022/11/09 03:48:38;;;;;;;11.45;2.95;;;11.10;99.90;;;;;;5086017;28;20032;-79
2022/11/09 03:51:04;;;;;;;15.32;2.53;;;11.10;99.90;;;;;;5120992;27;20040;-83
2022/11/09 03:53:29;;;;;;;13.85;2.97;;;11.10;99.90;;;;;;5081640;28;20055;-81
2022/11/09 03:55:57;;;;;;;11.35;2.67;;;11.20;99.90;;;;;;5083890;28;20039;-82
2022/11/09 03:58:22;;;;;;;15.55;3.97;;;11.00;99.90;;;;;;5084206;28;20085;-80
2022/11/09 04:00:48;;;;;;;14.63;2.40;;;11.20;99.90;;;;;;5089881;28;20036;-83
2022/11/09 04:03:13;;;;;;;12.65;2.58;;;11.20;99.90;;;;;;5086529;28;20390;-81
2022/11/09 04:05:39;;;;;;;17.80;2.70;;;11.00;99.90;;;;;;5082271;28;20094;-81
2022/11/09 04:08:05;;;;;;;13.80;2.92;;;11.00;99.90;;;;;;5084435;28;20059;-82
2022/11/09 04:10:30;;;;;;;15.82;2.60;;;11.10;99.90;;;;;;5102503;28;20040;-80
2022/11/09 04:12:56;;;;;;;16.58;2.72;;;11.20;99.90;;;;;;5098874;28;20060;-81
2022/11/09 04:15:22;;;;;;;17.63;2.97;;;11.10;99.90;;;;;;5084682;28;20048;-81
2022/11/09 04:17:57;;;;;;;15.65;2.55;;;11.00;99.90;;;;;;5087433;28;20041;-80
2022/11/09 04:20:24;;;;;;;19.10;2.95;;;11.00;99.90;;;;;;5084266;28;20171;-83
2022/11/09 04:22:57;;;;;;;15.00;2.70;;;11.20;99.90;;;;;;5069046;28;20047;-83
2022/11/09 04:25:25;;;;;;;16.73;2.55;;;11.00;99.90;;;;;;5067875;28;20085;-82
2022/11/09 04:27:58;;;;;;;16.83;2.30;;;11.00;99.90;;;;;;5090385;28;20427;-83
2022/11/09 04:30:28;;;;;;;21.15;3.10;;;10.80;99.90;;;;;;5118224;28;20101;-83
2022/11/09 04:33:14;;;;;;;14.98;2.55;;;10.80;99.90;;;;;;5053112;28;20140;-83
2022/11/09 04:35:39;;;;;;;16.55;2.33;;;10.80;99.90;;;;;;5067601;28;20054;-80
2022/11/09 04:38:09;;;;;;;20.40;3.13;;;10.80;99.90;;;;;;5084157;28;20035;-81
2022/11/09 04:40:35;;;;;;;16.70;2.85;;;10.90;99.90;;;;;;5063337;28;20119;-81
2022/11/09 04:43:06;;;;;;;14.23;2.65;;;11.00;99.90;;;;;;5086388;28;20028;-82
2022/11/09 04:45:33;;;;;;;14.65;2.83;;;11.20;99.90;;;;;;5112547;27;20043;-81
2022/11/09 04:48:01;;;;;;;18.23;2.60;;;11.20;99.90;;;;;;5100648;28;20047;-82
2022/11/09 04:50:28;;;;;;;13.63;2.50;;;11.20;99.90;;;;;;5088384;28;20540;-82
2022/11/09 04:52:53;;;;;;;14.95;2.85;;;11.30;99.90;;;;;;5113117;27;20152;-83
2022/11/09 04:55:19;;;;;;;17.75;2.95;;;11.10;99.90;;;;;;5121769;28;20077;-82
2022/11/09 04:57:45;;;;;;;13.18;2.80;;;11.20;99.90;;;;;;5089892;28;20478;-80
2022/11/09 05:00:11;;;;;;;13.43;2.88;;;11.30;99.90;;;;;;5072092;28;20040;-82
2022/11/09 05:02:37;;;;;;;16.15;3.05;;;11.30;99.90;;;;;;5088970;28;20073;-84
2022/11/09 05:05:03;;;;;;;13.27;2.58;;;11.10;99.90;;;;;;5087494;28;20118;-79
2022/11/09 05:07:28;;;;;;;13.45;2.53;;;11.20;99.90;;;;;;5071494;28;20378;-81
2022/11/09 05:09:55;;;;;;;11.13;2.60;;;11.10;99.90;;;;;;5081526;28;20489;-83
2022/11/09 05:12:21;;;;;;;15.80;2.75;;;11.30;99.90;;;;;;5114136;27;20139;-83
2022/11/09 05:14:47;;;;;;;15.98;2.67;;;11.40;99.90;;;;;;5080089;28;20064;-80
2022/11/09 05:17:45;;;;;;;10.57;2.50;;;11.20;99.90;;;;;;5068935;28;20036;-81
2022/11/09 05:20:11;;;;;;;12.30;2.90;;;11.20;99.90;;;;;;5085092;28;20062;-82
2022/11/09 05:25:24;;;;;;;15.82;2.72;;;11.30;99.90;;;;;;5086579;28;20059;-81
2022/11/09 05:27:51;;;;;;;15.25;3.00;;;11.30;99.90;;;;;;5109189;27;20049;-82
2022/11/09 05:30:17;;;;;;;16.05;2.42;;;11.20;99.90;;;;;;5103223;27;20036;-82
2022/11/09 05:32:43;;;;;;;11.73;2.67;;;11.30;99.90;;;;;;5069119;28;20348;-81
2022/11/09 05:35:09;;;;;;;18.50;2.85;;;11.30;99.90;;;;;;5089617;28;20371;-84
2022/11/09 05:37:38;;;;;;;12.85;2.97;;;11.30;99.90;;;;;;5088464;28;20028;-81
2022/11/09 05:40:05;;;;;;;16.38;2.70;;;11.40;99.90;;;;;;5070328;28;20543;-84
2022/11/09 05:42:31;;;;;;;17.52;2.35;;;11.20;99.90;;;;;;5105587;28;20085;-80
2022/11/09 05:44:57;;;;;;;14.50;2.78;;;11.20;99.90;;;;;;5071172;28;20139;-80
2022/11/09 05:47:22;;;;;;;13.02;2.58;;;11.30;99.90;;;;;;5089750;28;20039;-83
2022/11/09 05:49:50;;;;;;;11.25;2.67;;;11.30;99.90;;;;;;5069616;28;20474;-82
2022/11/09 05:52:16;;;;;;;12.35;3.00;;;11.10;99.90;;;;;;5120151;27;20083;-83
2022/11/09 05:54:42;;;;;;;15.18;2.83;;;11.30;99.90;;;;;;5087987;28;20072;-81
2022/11/09 05:57:07;;;;;;;14.85;3.03;;;11.20;99.90;;;;;;5084217;28;20031;-82
2022/11/09 05:59:33;;;;;;;14.95;2.55;;;11.20;99.90;;;;;;5087466;28;20032;-82
2022/11/09 06:01:59;;;;;;;20.00;3.28;;;11.00;99.90;;;;;;5072184;28;20410;-83
2022/11/09 06:04:24;;;;;;;18.67;3.20;;;11.20;99.90;;;;;;5088391;28;20043;-81
2022/11/09 06:06:51;;;;;;;17.90;3.10;;;11.30;99.90;;;;;;5108771;28;20182;-82
2022/11/09 06:09:17;;;;;;;20.05;3.47;;;11.20;99.90;;;;;;5083634;28;20040;-81
2022/11/09 06:11:42;;;;;;;13.43;2.78;;;11.20;99.90;;;;;;5087280;28;20378;-81
2022/11/09 06:14:08;;;;;;;13.57;2.90;;;11.10;99.90;;;;;;5106418;28;20060;-82
2022/11/09 06:16:35;;;;;;;12.95;2.90;;;10.90;99.90;;;;;;5085439;28;20115;-80
2022/11/09 06:19:01;;;;;;;15.95;3.10;;;11.10;99.90;;;;;;5123361;27;20043;-84
2022/11/09 06:21:26;;;;;;;14.68;3.13;;;10.90;99.90;;;;;;5087536;28;20028;-83
2022/11/09 06:23:52;;;;;;;15.45;2.80;;;11.00;99.90;;;;;;5086630;28;20044;-81
2022/11/09 06:26:18;;;;;;;17.50;3.20;;;11.00;99.90;;;;;;5086154;28;20048;-81
2022/11/09 06:28:43;;;;;;;12.25;2.40;;;10.90;99.90;;;;;;5087976;28;20032;-83
2022/11/09 06:31:12;;;;;;;12.07;3.03;;;11.00;99.90;;;;;;5119954;27;20036;-83
2022/11/09 06:34:15;;;;;;;10.98;2.65;;;10.90;99.90;;;;;;5104210;28;20040;-81
2022/11/09 06:36:40;;;;;;;19.70;3.00;;;10.80;99.90;;;;;;5087644;28;20035;-82
2022/11/09 06:39:08;;;;;;;15.35;2.92;;;10.90;99.90;;;;;;5111330;27;20039;-84
2022/11/09 06:41:34;;;;;;;19.52;3.05;;;10.80;99.90;;;;;;5064852;28;20143;-80
2022/11/09 06:44:00;;;;;;;15.60;2.75;;;11.00;99.90;;;;;;5068777;28;20181;-80
2022/11/09 06:46:25;;;;;;;12.25;2.45;;;10.70;99.90;;;;;;5086000;28;20115;-82
2022/11/09 06:48:51;;;;;;;13.75;2.60;;;10.90;99.90;;;;;;5086432;28;20045;-82
2022/11/09 06:51:16;;;;;;;12.48;2.58;;;10.90;99.90;;;;;;5088542;28;20105;-83
2022/11/09 06:53:44;;;;;;;15.32;2.83;;;10.90;99.90;;;;;;5104410;28;20040;-83
2022/11/09 06:56:10;;;;;;;12.27;3.03;;;10.90;99.90;;;;;;5088333;28;20047;-82
2022/11/09 06:58:36;;;;;;;13.80;2.60;;;10.80;99.90;;;;;;5090144;28;20032;-82
2022/11/09 07:01:10;;;;;;;16.30;2.92;;;11.00;99.90;;;;;;5067861;28;20044;-84
2022/11/09 07:03:37;;;;;;;13.30;2.35;;;10.90;99.90;;;;;;5076545;28;20075;-83
2022/11/09 07:06:07;;;;;;;12.20;2.88;;;10.80;99.90;;;;;;5090385;28;20143;-82
2022/11/09 07:08:34;;;;;;;13.57;2.92;;;10.90;99.90;;;;;;5089897;28;20401;-79
2022/11/09 07:11:11;;;;;;;13.85;2.55;;;10.70;99.90;;;;;;5114101;27;20378;-82
2022/11/09 07:13:37;;;;;;;18.88;2.80;;;10.90;99.90;;;;;;5071685;28;20552;-81
2022/11/09 07:16:04;;;;;;;14.45;2.55;;;10.90;99.90;;;;;;5086730;28;20117;-80
2022/11/09 07:19:08;;;;;;;13.38;2.35;;;10.70;99.90;;;;;;5071110;28;20080;-83
2022/11/09 07:21:34;;;;;;;15.45;2.72;;;10.80;99.90;;;;;;5087646;28;20395;-80
2022/11/09 07:24:00;;;;;;;14.57;3.10;;;10.90;99.90;;;;;;5103026;28;20052;-82
2022/11/09 07:26:26;;;;;;;15.27;2.53;;;10.80;99.90;;;;;;5090803;28;20055;-83
2022/11/09 07:28:51;;;;;;;18.17;2.80;;;10.90;99.90;;;;;;5095740;28;20039;-80
2022/11/09 07:31:17;;;;;;;12.63;2.55;;;10.80;99.90;;;;;;5086409;28;20574;-81
2022/11/09 07:33:43;;;;;;;14.40;2.90;;;10.80;99.90;;;;;;5084999;28;20429;-83
2022/11/09 07:36:08;;;;;;;18.80;2.60;;;10.70;99.90;;;;;;5088414;28;20039;-82
2022/11/09 07:38:34;;;;;;;19.98;3.25;;;10.90;99.90;;;;;;5090773;28;20210;-83
2022/11/09 07:41:01;;;;;;;13.98;2.65;;;11.00;99.90;;;;;;5092520;28;20059;-81
2022/11/09 07:43:28;;;;;;;13.55;2.33;;;11.10;99.90;;;;;;5086559;28;20542;-82
2022/11/09 07:45:54;;;;;;;13.63;2.33;;;11.10;99.90;;;;;;5086699;28;20056;-84
2022/11/09 07:48:20;;;;;;;16.08;3.13;;;11.10;99.90;;;;;;5086015;28;20346;-82
2022/11/09 07:50:46;;;;;;;16.60;3.00;;;11.10;99.90;;;;;;5118529;27;20128;-83
2022/11/09 07:53:13;;;;;;;15.95;2.75;;;11.10;99.90;;;;;;5117299;27;20052;-82
2022/11/09 07:55:40;;;;;;;15.73;2.67;;;11.20;99.90;;;;;;5080693;28;20052;-86
2022/11/09 07:58:09;;;;;;;18.08;2.50;;;11.00;99.90;;;;;;5104396;28;20331;-85
2022/11/09 08:00:37;;;;;;;14.10;2.80;;;11.00;99.90;;;;;;5086256;28;20082;-82
2022/11/09 08:06:43;;;;;;;13.48;2.50;;;11.20;99.90;;;;;;5096014;28;20043;-81
2022/11/09 08:09:09;;;;;;;18.27;2.88;;;11.20;99.90;;;;;;5101734;28;20064;-83
2022/11/09 08:11:35;;;;;;;16.15;2.20;;;11.30;99.90;;;;;;5125051;27;20063;-82
2022/11/09 08:14:00;;;;;;;14.10;2.65;;;11.30;99.90;;;;;;5096464;28;20048;-81
2022/11/09 08:16:26;;;;;;;12.30;2.90;;;11.20;99.90;;;;;;5088906;28;20059;-81
2022/11/09 08:19:10;;;;;;;18.08;2.50;;;11.10;99.90;;;;;;5074831;28;20040;-82
2022/11/09 08:21:36;;;;;;;18.10;2.72;;;11.30;99.90;;;;;;5072095;28;20131;-83
2022/11/09 08:24:04;;;;;;;15.48;2.67;;;11.40;99.90;;;;;;5088884;28;20039;-84
2022/11/09 08:26:30;;;;;;;10.40;2.50;;;11.50;99.90;;;;;;5088781;28;20052;-80
2022/11/09 08:28:56;;;;;;;13.48;2.45;;;11.60;99.90;;;;;;5090492;28;20117;-81
2022/11/09 08:31:22;;;;;;;16.73;2.58;;;11.50;99.90;;;;;;5116955;28;20482;-82
2022/11/09 08:33:48;;;;;;;16.67;3.03;;;11.50;99.90;;;;;;5089691;28;20080;-81
2022/11/09 08:36:16;;;;;;;17.63;2.88;;;11.40;99.90;;;;;;5086517;28;20122;-82
2022/11/09 08:38:43;;;;;;;15.82;2.80;;;11.40;99.90;;;;;;5095282;28;20040;-84
2022/11/09 08:41:10;;;;;;;14.38;2.70;;;11.60;99.90;;;;;;5074394;28;20131;-85
2022/11/09 08:43:35;;;;;;;19.08;2.88;;;11.50;99.90;;;;;;5076014;28;20436;-82
2022/11/09 08:46:01;;;;;;;17.27;2.78;;;11.60;99.90;;;;;;5090102;28;20110;-82
2022/11/09 08:48:27;;;;;;;13.95;2.83;;;11.60;99.90;;;;;;5075446;28;20051;-82
2022/11/09 08:50:55;;;;;;;15.30;2.70;;;11.70;99.90;;;;;;5074135;28;20056;-84
2022/11/09 08:53:22;;;;;;;19.58;3.20;;;11.80;99.90;;;;;;5089791;28;20147;-84
2022/11/09 08:55:48;;;;;;;20.15;2.88;;;11.80;99.90;;;;;;5089181;28;20120;-83
2022/11/09 08:58:14;;;;;;;17.20;2.70;;;12.00;99.90;;;;;;5059074;28;20128;-83
2022/11/09 09:00:40;;;;;;;17.75;2.58;;;12.10;99.90;;;;;;5080603;28;20056;-83
2022/11/09 09:03:06;;;;;;;21.50;3.13;;;12.10;99.90;;;;;;5077252;28;20043;-80
2022/11/09 09:05:34;;;;;;;20.65;2.95;;;12.10;99.90;;;;;;5076961;28;20180;-82
2022/11/09 09:08:03;;;;;;;16.98;2.67;;;12.00;99.90;;;;;;5084698;28;20450;-83
2022/11/09 09:10:31;;;;;;;9.65;2.35;;;12.10;99.90;;;;;;5067409;28;20336;-85
2022/11/09 09:12:57;;;;;;;16.80;2.88;;;12.20;99.90;;;;;;5085289;28;20052;-83
2022/11/09 09:15:23;;;;;;;21.13;2.88;;;12.20;99.90;;;;;;5088483;28;20032;-83
2022/11/09 09:17:49;;;;;;;13.88;2.45;;;12.10;99.90;;;;;;5077814;28;20120;-85
2022/11/09 09:20:16;;;;;;;17.27;3.17;;;12.20;99.90;;;;;;5094221;28;20086;-82
2022/11/09 09:22:43;;;;;;;14.15;2.85;;;12.20;99.90;;;;;;5084248;28;20234;-83
2022/11/09 09:25:08;;;;;;;15.30;2.42;;;12.10;99.90;;;;;;5096436;28;20471;-82
2022/11/09 09:27:34;;;;;;;15.57;2.70;;;12.20;99.90;;;;;;5096245;28;20044;-81
2022/11/09 09:30:02;;;;;;;18.67;3.00;;;12.40;99.90;;;;;;5076792;28;20115;-81
2022/11/09 09:32:28;;;;;;;17.10;3.10;;;12.40;99.90;;;;;;5091470;28;20040;-84
2022/11/09 09:34:54;;;;;;;16.67;2.95;;;12.40;99.90;;;;;;5089084;28;20056;-82
2022/11/09 09:37:20;;;;;;;17.27;2.97;;;12.40;99.90;;;;;;5122010;27;20435;-83
2022/11/09 09:39:46;;;;;;;17.67;2.60;;;12.50;99.90;;;;;;5089371;28;20063;-83
2022/11/09 09:42:41;;;;;;;15.65;2.60;;;12.40;99.90;;;;;;5053914;28;20370;-84
2022/11/09 09:45:31;;;;;;;13.82;2.50;;;12.50;99.90;;;;;;5101542;28;20051;-85
2022/11/09 09:48:21;;;;;;;15.60;2.72;;;12.50;99.90;;;;;;5092780;28;20113;-82
2022/11/09 09:51:01;;;;;;;16.08;2.80;;;12.60;99.90;;;;;;5125991;27;20119;-81
2022/11/09 09:53:32;;;;;;;15.95;2.53;;;12.70;99.90;;;;;;5098952;28;20111;-84
2022/11/09 09:56:05;;;;;;;17.05;3.22;;;12.80;99.90;;;;;;5081247;28;20457;-80
2022/11/09 09:58:33;;;;;;;20.45;3.33;;;12.60;99.90;;;;;;5090208;28;20035;-83
2022/11/09 10:01:18;;;;;;;11.68;2.60;;;12.70;99.90;;;;;;5097149;28;20059;-82
2022/11/09 10:03:45;;;;;;;16.30;3.08;;;12.90;99.90;;;;;;5099497;28;20367;-83
2022/11/09 10:06:26;;;;;;;18.08;3.38;;;13.00;99.90;;;;;;5077436;28;20564;-83
2022/11/09 10:09:20;;;;;;;15.70;3.28;;;13.00;99.90;;;;;;5076897;28;20135;-80
2022/11/09 10:12:09;;;;;;;13.10;2.50;;;13.10;99.90;;;;;;5072636;28;20082;-80
2022/11/09 10:14:58;;;;;;;13.55;3.38;;;13.10;99.90;;;;;;5083300;28;20080;-82
2022/11/09 10:17:39;;;;;;;11.52;2.70;;;13.20;99.90;;;;;;5105501;28;20040;-85
2022/11/09 10:20:40;;;;;;;19.13;2.80;;;13.20;99.90;;;;;;5074145;28;20052;-81
2022/11/09 10:23:35;;;;;;;16.75;3.35;;;13.30;99.90;;;;;;5050731;28;20052;-82
2022/11/09 10:26:16;;;;;;;15.45;3.05;;;13.30;99.90;;;;;;5031375;28;20517;-80
2022/11/09 10:28:44;;;;;;;20.05;3.30;;;13.30;99.90;;;;;;5032805;28;20080;-81
2022/11/09 10:31:16;;;;;;;15.77;3.08;;;13.30;99.90;;;;;;5067434;28;20189;-82
2022/11/09 10:33:46;;;;;;;20.00;3.35;;;13.30;99.90;;;;;;5066087;28;20625;-83
2022/11/09 10:36:39;;;;;;;12.93;2.63;;;13.40;99.90;;;;;;5028189;28;20056;-81
2022/11/09 10:39:12;;;;;;;12.32;2.58;;;13.40;99.90;;;;;;5033139;28;20167;-82
2022/11/09 10:41:47;;;;;;;16.23;3.65;;;13.50;99.90;;;;;;5033853;28;20045;-82
2022/11/09 10:44:16;;;;;;;19.15;3.20;;;13.40;99.90;;;;;;5063617;28;20068;-81
2022/11/09 10:47:26;;;;;;;13.88;3.30;;;13.30;99.90;;;;;;5032222;28;20338;-81
2022/11/09 10:50:15;;;;;;;16.02;3.20;;;13.30;99.90;;;;;;5013863;28;20096;-82
2022/11/09 10:52:40;;;;;;;19.60;3.75;;;13.30;99.90;;;;;;5022314;28;20056;-81
2022/11/09 10:55:25;;;;;;;13.77;3.17;;;13.20;99.90;;;;;;5061527;28;20040;-83
2022/11/09 10:58:00;;;;;;;12.77;2.72;;;13.30;99.90;;;;;;5106863;28;20123;-81
2022/11/09 11:00:27;;;;;;;14.23;3.33;;;13.30;99.90;;;;;;5083132;28;20397;-83
2022/11/09 11:02:53;;;;;;;15.63;3.55;;;13.30;99.90;;;;;;5088309;28;20131;-81
2022/11/09 11:05:25;;;;;;;18.98;3.83;;;13.30;99.90;;;;;;5081425;28;20494;-83
2022/11/09 11:07:51;;;;;;;14.13;2.95;;;13.30;99.90;;;;;;5070703;28;20052;-81
2022/11/09 11:10:19;;;;;;;14.00;3.17;;;13.40;99.90;;;;;;5070737;28;20498;-84
2022/11/09 11:13:00;;;;;;;13.23;3.13;;;13.30;99.90;;;;;;5090009;28;20062;-85
2022/11/09 11:15:37;;;;;;;13.57;2.85;;;13.40;99.90;;;;;;5089501;28;20485;-82
2022/11/09 11:21:44;;;;;;;16.60;2.92;;;13.30;99.90;;;;;;5089511;28;20029;-82
2022/11/09 11:24:19;;;;;;;15.90;3.17;;;13.20;99.90;;;;;;5085417;28;20052;-82
2022/11/09 11:26:46;;;;;;;12.25;2.72;;;13.30;99.90;;;;;;5070131;28;20047;-84
2022/11/09 11:29:46;;;;;;;15.40;2.90;;;13.30;99.90;;;;;;5082326;28;20075;-83
2022/11/09 11:32:15;;;;;;;15.02;3.35;;;13.40;99.90;;;;;;5101108;27;20048;-83
2022/11/09 11:38:31;;;;;;;14.30;2.83;;;13.40;99.90;;;;;;5086372;28;20145;-82
2022/11/09 11:41:18;;;;;;;16.88;3.15;;;13.40;99.90;;;;;;5119907;27;20066;-81
2022/11/09 11:43:43;;;;;;;23.10;3.45;;;13.40;99.90;;;;;;5067914;28;20052;-83
2022/11/09 11:46:15;;;;;;;14.80;2.88;;;13.30;99.90;;;;;;5073246;28;20114;-84
2022/11/09 11:52:54;;;;;;;13.80;2.80;;;13.50;99.90;;;;;;5085647;28;20437;-82
2022/11/09 11:55:38;;;;;;;12.75;2.75;;;13.60;99.90;;;;;;5089856;28;20398;-85
2022/11/09 11:58:29;;;;;;;15.38;3.40;;;13.60;99.90;;;;;;5065757;28;20071;-82
2022/11/09 12:01:22;;;;;;;13.63;2.97;;;13.70;99.90;;;;;;5085144;28;20542;-82
2022/11/09 12:03:56;;;;;;;16.58;3.00;;;14.00;99.90;;;;;;5095806;28;20079;-83
2022/11/09 12:06:24;;;;;;;17.15;3.28;;;13.90;99.90;;;;;;5053560;28;20056;-82
2022/11/09 12:09:47;;;;;;;15.23;3.00;;;13.80;99.90;;;;;;5071991;28;20071;-84
2022/11/09 12:12:31;;;;;;;14.15;2.90;;;13.80;99.90;;;;;;5052626;28;20040;-83
2022/11/09 12:15:25;;;;;;;13.85;3.05;;;13.60;99.90;;;;;;5082898;28;20491;-83
2022/11/09 12:18:24;;;;;;;15.48;3.15;;;13.50;99.90;;;;;;5081412;28;20049;-84
2022/11/09 12:21:27;;;;;;;17.00;3.40;;;13.50;99.90;;;;;;4994142;28;20062;-85
2022/11/09 12:23:53;;;;;;;17.15;3.30;;;13.50;99.90;;;;;;4981079;28;20168;-84
2022/11/09 12:26:48;;;;;;;17.08;3.60;;;13.40;99.90;;;;;;4979295;28;20097;-83
2022/11/09 12:29:57;;;;;;;16.67;3.65;;;13.40;99.90;;;;;;4928237;28;20078;-82
2022/11/09 12:32:31;;;;;;;16.73;3.85;;;13.40;99.90;;;;;;4929355;29;20479;-84
2022/11/09 12:35:17;;;;;;;19.90;3.95;;;13.40;99.90;;;;;;4954450;28;20058;-85
2022/11/09 12:37:54;;;;;;;15.25;3.60;;;13.30;99.90;;;;;;4937468;29;20514;-83
2022/11/09 12:40:27;;;;;;;18.30;3.63;;;13.50;99.90;;;;;;4933816;29;20059;-85
2022/11/09 12:43:00;;;;;;;15.57;3.47;;;13.50;99.90;;;;;;4926529;28;20062;-85
2022/11/09 12:45:38;;;;;;;15.33;3.63;;;13.50;99.90;;;;;;4951266;28;20055;-83
2022/11/09 12:48:21;;;;;;;15.95;3.15;;;13.60;99.90;;;;;;4953757;28;20054;-83
2022/11/09 12:50:47;;;;;;;18.05;3.30;;;13.60;99.90;;;;;;4946597;28;20058;-84
2022/11/09 12:53:13;;;;;;;17.48;3.13;;;13.60;99.90;;;;;;4951520;28;20059;-83
2022/11/09 12:56:01;;;;;;;11.73;2.70;;;13.70;99.90;;;;;;4950818;28;20051;-82
2022/11/09 12:58:29;;;;;;;12.93;2.90;;;13.60;99.90;;;;;;4980086;28;20197;-82
2022/11/09 13:01:05;;;;;;;17.30;3.10;;;13.50;99.90;;;;;;5003315;28;20054;-84
2022/11/09 13:07:27;;;;;;;13.75;3.20;;;13.30;99.90;;;;;;5084085;28;20035;-81
2022/11/09 13:09:54;;;;;;;16.92;3.20;;;13.00;99.90;;;;;;5085146;28;20059;-81
2022/11/09 13:12:38;;;;;;;14.68;3.40;;;12.70;99.90;;;;;;5065747;28;20063;-81
2022/11/09 13:15:27;;;;;;;24.10;3.70;;;12.70;99.90;;;;;;5114262;27;20064;-81
2022/11/09 13:18:14;;;;;;;13.13;2.95;;;12.60;99.90;;;;;;5114981;27;20040;-82
2022/11/09 13:21:17;;;;;;;15.18;3.17;;;12.50;99.90;;;;;;5084168;28;20040;-80
2022/11/09 13:23:44;;;;;;;10.98;2.92;;;12.40;99.90;;;;;;5085245;28;20063;-82
2022/11/09 13:26:21;;;;;;;16.90;2.90;;;12.30;99.90;;;;;;5077738;28;20048;-82
2022/11/09 13:29:13;;;;;;;11.32;2.65;;;12.40;99.90;;;;;;5067403;28;20551;-81
2022/11/09 13:32:09;;;;;;;17.25;2.72;;;12.30;99.90;;;;;;5051534;28;20055;-83
2022/11/09 13:35:14;;;;;;;9.98;2.65;;;12.40;99.90;;;;;;5055647;28;20053;-81